sensor_id;sensor_type;location;lat;lon;timestamp;P1;durP1;ratioP1;P2;durP2;ratioP2
52724;SDS011;38621;52.830;6.914;2023-09-12T00:01:41;26.63;;;19.27;;
52724;SDS011;38621;52.830;6.914;2023-09-12T00:04:06;30.02;;;20.60;;
52724;SDS011;38621;52.830;6.914;2023-09-12T00:06:32;28.48;;;19.65;;
52724;SDS011;38621;52.830;6.914;2023-09-12T00:08:58;28.60;;;18.65;;
52724;SDS011;38621;52.830;6.914;2023-09-12T00:11:23;27.48;;;19.17;;
52724;SDS011;38621;52.830;6.914;2023-09-12T00:13:50;26.77;;;18.35;;
52724;SDS011;38621;52.830;6.914;2023-09-12T00:16:16;26.77;;;18.98;;
52724;SDS011;38621;52.830;6.914;2023-09-12T00:18:42;26.13;;;18.58;;
52724;SDS011;38621;52.830;6.914;2023-09-12T00:21:08;28.02;;;18.40;;
52724;SDS011;38621;52.830;6.914;2023-09-12T00:23:34;27.20;;;18.90;;
52724;SDS011;38621;52.830;6.914;2023-09-12T00:26:00;25.20;;;18.35;;
52724;SDS011;38621;52.830;6.914;2023-09-12T00:28:25;26.95;;;19.08;;
52724;SDS011;38621;52.830;6.914;2023-09-12T00:30:51;25.90;;;19.08;;
52724;SDS011;38621;52.830;6.914;2023-09-12T00:33:17;24.35;;;18.02;;
52724;SDS011;38621;52.830;6.914;2023-09-12T00:35:44;24.73;;;17.00;;
52724;SDS011;38621;52.830;6.914;2023-09-12T00:38:10;27.17;;;18.10;;
52724;SDS011;38621;52.830;6.914;2023-09-12T00:40:36;28.50;;;19.15;;
52724;SDS011;38621;52.830;6.914;2023-09-12T00:43:02;24.55;;;18.30;;
52724;SDS011;38621;52.830;6.914;2023-09-12T00:45:29;27.83;;;19.88;;
52724;SDS011;38621;52.830;6.914;2023-09-12T00:47:54;28.52;;;19.08;;
52724;SDS011;38621;52.830;6.914;2023-09-12T00:50:23;27.02;;;19.23;;
52724;SDS011;38621;52.830;6.914;2023-09-12T00:52:50;25.73;;;18.65;;
52724;SDS011;38621;52.830;6.914;2023-09-12T00:55:17;26.52;;;19.17;;
52724;SDS011;38621;52.830;6.914;2023-09-12T00:57:42;28.20;;;17.85;;
52724;SDS011;38621;52.830;6.914;2023-09-12T01:00:10;25.35;;;17.60;;
52724;SDS011;38621;52.830;6.914;2023-09-12T01:02:43;26.75;;;18.75;;
52724;SDS011;38621;52.830;6.914;2023-09-12T01:05:12;25.25;;;17.88;;
52724;SDS011;38621;52.830;6.914;2023-09-12T01:07:42;27.80;;;19.20;;
52724;SDS011;38621;52.830;6.914;2023-09-12T01:10:08;24.95;;;18.05;;
52724;SDS011;38621;52.830;6.914;2023-09-12T01:12:35;28.58;;;18.83;;
52724;SDS011;38621;52.830;6.914;2023-09-12T01:15:01;27.02;;;17.55;;
52724;SDS011;38621;52.830;6.914;2023-09-12T01:17:31;25.67;;;17.75;;
52724;SDS011;38621;52.830;6.914;2023-09-12T01:19:57;25.38;;;19.05;;
52724;SDS011;38621;52.830;6.914;2023-09-12T01:27:55;23.02;;;17.38;;
52724;SDS011;38621;52.830;6.914;2023-09-12T01:30:24;26.92;;;18.08;;
52724;SDS011;38621;52.830;6.914;2023-09-12T01:32:53;24.55;;;16.95;;
52724;SDS011;38621;52.830;6.914;2023-09-12T01:35:19;24.23;;;16.33;;
52724;SDS011;38621;52.830;6.914;2023-09-12T01:37:45;24.63;;;16.95;;
52724;SDS011;38621;52.830;6.914;2023-09-12T01:40:10;23.27;;;17.50;;
52724;SDS011;38621;52.830;6.914;2023-09-12T01:42:38;24.73;;;17.45;;
52724;SDS011;38621;52.830;6.914;2023-09-12T01:45:09;26.42;;;17.50;;
52724;SDS011;38621;52.830;6.914;2023-09-12T01:47:38;22.92;;;16.73;;
52724;SDS011;38621;52.830;6.914;2023-09-12T01:50:06;23.85;;;16.70;;
52724;SDS011;38621;52.830;6.914;2023-09-12T01:52:34;24.02;;;15.05;;
52724;SDS011;38621;52.830;6.914;2023-09-12T01:55:01;19.05;;;14.45;;
52724;SDS011;38621;52.830;6.914;2023-09-12T01:57:27;24.02;;;16.63;;
52724;SDS011;38621;52.830;6.914;2023-09-12T01:59:54;73.82;;;17.77;;
52724;SDS011;38621;52.830;6.914;2023-09-12T02:02:19;28.25;;;16.10;;
52724;SDS011;38621;52.830;6.914;2023-09-12T02:05:19;23.48;;;16.08;;
52724;SDS011;38621;52.830;6.914;2023-09-12T02:07:41;24.98;;;16.38;;
52724;SDS011;38621;52.830;6.914;2023-09-12T02:10:07;26.77;;;17.50;;
52724;SDS011;38621;52.830;6.914;2023-09-12T02:12:34;28.73;;;18.10;;
52724;SDS011;38621;52.830;6.914;2023-09-12T02:15:00;27.63;;;18.45;;
52724;SDS011;38621;52.830;6.914;2023-09-12T02:17:25;27.33;;;18.25;;
52724;SDS011;38621;52.830;6.914;2023-09-12T02:19:51;31.30;;;18.95;;
52724;SDS011;38621;52.830;6.914;2023-09-12T02:22:17;33.20;;;20.40;;
52724;SDS011;38621;52.830;6.914;2023-09-12T02:24:42;26.60;;;18.08;;
52724;SDS011;38621;52.830;6.914;2023-09-12T02:27:08;26.77;;;18.13;;
52724;SDS011;38621;52.830;6.914;2023-09-12T02:29:34;119.25;;;22.63;;
52724;SDS011;38621;52.830;6.914;2023-09-12T02:31:59;91.35;;;21.60;;
52724;SDS011;38621;52.830;6.914;2023-09-12T02:34:25;210.25;;;27.38;;
52724;SDS011;38621;52.830;6.914;2023-09-12T02:36:51;200.52;;;23.45;;
52724;SDS011;38621;52.830;6.914;2023-09-12T02:39:17;196.85;;;26.88;;
52724;SDS011;38621;52.830;6.914;2023-09-12T02:41:43;164.75;;;25.05;;
52724;SDS011;38621;52.830;6.914;2023-09-12T02:44:08;189.57;;;26.05;;
52724;SDS011;38621;52.830;6.914;2023-09-12T02:46:36;248.45;;;27.98;;
52724;SDS011;38621;52.830;6.914;2023-09-12T02:49:02;110.05;;;20.58;;
52724;SDS011;38621;52.830;6.914;2023-09-12T02:51:28;193.75;;;26.30;;
52724;SDS011;38621;52.830;6.914;2023-09-12T02:53:54;172.77;;;23.20;;
52724;SDS011;38621;52.830;6.914;2023-09-12T02:56:20;213.73;;;24.83;;
52724;SDS011;38621;52.830;6.914;2023-09-12T02:58:46;174.88;;;27.17;;
52724;SDS011;38621;52.830;6.914;2023-09-12T03:01:15;205.07;;;25.67;;
52724;SDS011;38621;52.830;6.914;2023-09-12T03:03:48;206.10;;;26.88;;
52724;SDS011;38621;52.830;6.914;2023-09-12T03:06:14;160.20;;;21.60;;
52724;SDS011;38621;52.830;6.914;2023-09-12T03:08:41;138.52;;;22.48;;
52724;SDS011;38621;52.830;6.914;2023-09-12T03:11:07;144.85;;;23.33;;
52724;SDS011;38621;52.830;6.914;2023-09-12T03:13:33;113.18;;;22.48;;
52724;SDS011;38621;52.830;6.914;2023-09-12T03:15:59;166.65;;;25.45;;
52724;SDS011;38621;52.830;6.914;2023-09-12T03:18:25;149.32;;;25.08;;
52724;SDS011;38621;52.830;6.914;2023-09-12T03:20:51;113.75;;;22.40;;
52724;SDS011;38621;52.830;6.914;2023-09-12T03:23:18;183.70;;;28.73;;
52724;SDS011;38621;52.830;6.914;2023-09-12T03:25:44;117.03;;;24.13;;
52724;SDS011;38621;52.830;6.914;2023-09-12T03:28:10;110.00;;;22.92;;
52724;SDS011;38621;52.830;6.914;2023-09-12T03:30:36;114.35;;;22.52;;
52724;SDS011;38621;52.830;6.914;2023-09-12T03:33:03;98.50;;;20.77;;
52724;SDS011;38621;52.830;6.914;2023-09-12T03:35:31;124.82;;;23.83;;
52724;SDS011;38621;52.830;6.914;2023-09-12T03:37:58;134.02;;;23.35;;
52724;SDS011;38621;52.830;6.914;2023-09-12T03:40:23;127.63;;;22.83;;
52724;SDS011;38621;52.830;6.914;2023-09-12T03:42:49;95.75;;;21.10;;
52724;SDS011;38621;52.830;6.914;2023-09-12T03:45:15;95.90;;;19.88;;
52724;SDS011;38621;52.830;6.914;2023-09-12T03:47:41;105.32;;;22.23;;
52724;SDS011;38621;52.830;6.914;2023-09-12T03:50:07;120.03;;;22.83;;
52724;SDS011;38621;52.830;6.914;2023-09-12T03:52:33;76.50;;;20.75;;
52724;SDS011;38621;52.830;6.914;2023-09-12T03:54:59;92.75;;;21.83;;
52724;SDS011;38621;52.830;6.914;2023-09-12T03:57:26;84.47;;;21.17;;
52724;SDS011;38621;52.830;6.914;2023-09-12T03:59:52;84.45;;;21.15;;
52724;SDS011;38621;52.830;6.914;2023-09-12T04:02:18;83.18;;;21.88;;
52724;SDS011;38621;52.830;6.914;2023-09-12T04:04:44;67.65;;;19.92;;
52724;SDS011;38621;52.830;6.914;2023-09-12T04:07:09;65.97;;;18.80;;
52724;SDS011;38621;52.830;6.914;2023-09-12T04:09:35;87.28;;;20.10;;
52724;SDS011;38621;52.830;6.914;2023-09-12T04:12:01;96.63;;;19.52;;
52724;SDS011;38621;52.830;6.914;2023-09-12T04:14:27;81.10;;;19.13;;
52724;SDS011;38621;52.830;6.914;2023-09-12T04:16:53;89.93;;;20.33;;
52724;SDS011;38621;52.830;6.914;2023-09-12T04:19:18;87.93;;;19.20;;
52724;SDS011;38621;52.830;6.914;2023-09-12T04:21:44;79.68;;;19.50;;
52724;SDS011;38621;52.830;6.914;2023-09-12T04:24:10;111.25;;;20.42;;
52724;SDS011;38621;52.830;6.914;2023-09-12T04:26:36;103.78;;;18.95;;
52724;SDS011;38621;52.830;6.914;2023-09-12T04:29:01;72.93;;;18.55;;
52724;SDS011;38621;52.830;6.914;2023-09-12T04:31:27;68.55;;;18.90;;
52724;SDS011;38621;52.830;6.914;2023-09-12T04:33:53;76.15;;;18.88;;
52724;SDS011;38621;52.830;6.914;2023-09-12T04:36:19;83.45;;;19.25;;
52724;SDS011;38621;52.830;6.914;2023-09-12T04:38:45;63.33;;;18.85;;
52724;SDS011;38621;52.830;6.914;2023-09-12T04:41:12;76.65;;;19.85;;
52724;SDS011;38621;52.830;6.914;2023-09-12T04:43:42;89.28;;;19.50;;
52724;SDS011;38621;52.830;6.914;2023-09-12T04:46:09;46.85;;;17.35;;
52724;SDS011;38621;52.830;6.914;2023-09-12T04:48:35;55.45;;;18.83;;
52724;SDS011;38621;52.830;6.914;2023-09-12T04:51:01;51.13;;;17.30;;
52724;SDS011;38621;52.830;6.914;2023-09-12T04:53:26;29.80;;;16.80;;
52724;SDS011;38621;52.830;6.914;2023-09-12T04:55:58;31.20;;;16.55;;
52724;SDS011;38621;52.830;6.914;2023-09-12T04:58:24;26.67;;;16.30;;
52724;SDS011;38621;52.830;6.914;2023-09-12T05:00:50;31.52;;;15.50;;
52724;SDS011;38621;52.830;6.914;2023-09-12T05:03:15;21.30;;;16.02;;
52724;SDS011;38621;52.830;6.914;2023-09-12T05:05:41;30.15;;;16.48;;
52724;SDS011;38621;52.830;6.914;2023-09-12T05:08:10;25.48;;;16.38;;
52724;SDS011;38621;52.830;6.914;2023-09-12T05:10:35;26.48;;;16.17;;
52724;SDS011;38621;52.830;6.914;2023-09-12T05:13:02;29.35;;;16.27;;
52724;SDS011;38621;52.830;6.914;2023-09-12T05:15:28;37.13;;;16.90;;
52724;SDS011;38621;52.830;6.914;2023-09-12T05:17:54;24.15;;;16.92;;
52724;SDS011;38621;52.830;6.914;2023-09-12T05:20:19;24.08;;;17.38;;
52724;SDS011;38621;52.830;6.914;2023-09-12T05:22:45;25.90;;;17.08;;
52724;SDS011;38621;52.830;6.914;2023-09-12T05:25:11;26.80;;;16.58;;
52724;SDS011;38621;52.830;6.914;2023-09-12T05:27:36;25.80;;;17.40;;
52724;SDS011;38621;52.830;6.914;2023-09-12T05:30:02;24.10;;;16.05;;
52724;SDS011;38621;52.830;6.914;2023-09-12T05:32:28;29.17;;;18.02;;
52724;SDS011;38621;52.830;6.914;2023-09-12T05:34:54;26.45;;;16.08;;
52724;SDS011;38621;52.830;6.914;2023-09-12T05:37:19;23.83;;;16.70;;
52724;SDS011;38621;52.830;6.914;2023-09-12T05:39:46;25.17;;;16.95;;
52724;SDS011;38621;52.830;6.914;2023-09-12T05:42:11;24.92;;;16.83;;
52724;SDS011;38621;52.830;6.914;2023-09-12T05:44:37;27.70;;;16.90;;
52724;SDS011;38621;52.830;6.914;2023-09-12T05:47:03;24.05;;;16.73;;
52724;SDS011;38621;52.830;6.914;2023-09-12T05:49:29;22.75;;;16.08;;
52724;SDS011;38621;52.830;6.914;2023-09-12T05:51:54;25.95;;;16.15;;
52724;SDS011;38621;52.830;6.914;2023-09-12T05:54:20;25.85;;;15.77;;
52724;SDS011;38621;52.830;6.914;2023-09-12T05:56:46;24.48;;;16.02;;
52724;SDS011;38621;52.830;6.914;2023-09-12T05:59:13;24.80;;;15.75;;
52724;SDS011;38621;52.830;6.914;2023-09-12T06:01:39;25.55;;;17.23;;
52724;SDS011;38621;52.830;6.914;2023-09-12T06:04:05;35.70;;;17.55;;
52724;SDS011;38621;52.830;6.914;2023-09-12T06:06:31;27.27;;;16.75;;
52724;SDS011;38621;52.830;6.914;2023-09-12T06:08:57;28.80;;;15.93;;
52724;SDS011;38621;52.830;6.914;2023-09-12T06:11:23;42.25;;;18.10;;
52724;SDS011;38621;52.830;6.914;2023-09-12T06:13:49;30.38;;;16.70;;
52724;SDS011;38621;52.830;6.914;2023-09-12T06:16:14;27.95;;;17.33;;
52724;SDS011;38621;52.830;6.914;2023-09-12T06:18:40;28.20;;;17.10;;
52724;SDS011;38621;52.830;6.914;2023-09-12T06:21:06;29.80;;;17.42;;
52724;SDS011;38621;52.830;6.914;2023-09-12T06:23:33;30.17;;;18.40;;
52724;SDS011;38621;52.830;6.914;2023-09-12T06:25:59;35.42;;;17.30;;
52724;SDS011;38621;52.830;6.914;2023-09-12T06:28:25;24.67;;;16.23;;
52724;SDS011;38621;52.830;6.914;2023-09-12T06:30:52;29.40;;;17.00;;
52724;SDS011;38621;52.830;6.914;2023-09-12T06:33:18;32.63;;;16.90;;
52724;SDS011;38621;52.830;6.914;2023-09-12T06:35:43;26.27;;;16.15;;
52724;SDS011;38621;52.830;6.914;2023-09-12T06:38:13;26.13;;;16.50;;
52724;SDS011;38621;52.830;6.914;2023-09-12T06:40:39;25.65;;;16.77;;
52724;SDS011;38621;52.830;6.914;2023-09-12T06:43:05;25.48;;;16.75;;
52724;SDS011;38621;52.830;6.914;2023-09-12T06:45:30;28.90;;;17.90;;
52724;SDS011;38621;52.830;6.914;2023-09-12T06:47:58;28.05;;;17.92;;
52724;SDS011;38621;52.830;6.914;2023-09-12T06:50:23;31.40;;;19.05;;
52724;SDS011;38621;52.830;6.914;2023-09-12T06:52:49;28.38;;;17.73;;
52724;SDS011;38621;52.830;6.914;2023-09-12T06:55:14;29.20;;;18.55;;
52724;SDS011;38621;52.830;6.914;2023-09-12T06:57:40;28.00;;;17.77;;
52724;SDS011;38621;52.830;6.914;2023-09-12T07:00:07;29.85;;;18.92;;
52724;SDS011;38621;52.830;6.914;2023-09-12T07:02:33;33.05;;;19.50;;
52724;SDS011;38621;52.830;6.914;2023-09-12T07:04:59;30.33;;;17.67;;
52724;SDS011;38621;52.830;6.914;2023-09-12T07:07:25;27.95;;;18.27;;
52724;SDS011;38621;52.830;6.914;2023-09-12T07:09:50;30.70;;;18.67;;
52724;SDS011;38621;52.830;6.914;2023-09-12T07:12:16;28.48;;;18.63;;
52724;SDS011;38621;52.830;6.914;2023-09-12T07:14:42;31.73;;;20.23;;
52724;SDS011;38621;52.830;6.914;2023-09-12T07:17:07;35.25;;;20.98;;
52724;SDS011;38621;52.830;6.914;2023-09-12T07:19:33;34.45;;;19.42;;
52724;SDS011;38621;52.830;6.914;2023-09-12T07:21:59;32.90;;;19.10;;
52724;SDS011;38621;52.830;6.914;2023-09-12T07:24:25;33.63;;;19.38;;
52724;SDS011;38621;52.830;6.914;2023-09-12T07:26:51;29.13;;;17.83;;
52724;SDS011;38621;52.830;6.914;2023-09-12T07:29:17;32.55;;;18.40;;
52724;SDS011;38621;52.830;6.914;2023-09-12T07:31:42;31.88;;;18.55;;
52724;SDS011;38621;52.830;6.914;2023-09-12T07:34:08;29.10;;;18.23;;
52724;SDS011;38621;52.830;6.914;2023-09-12T07:36:35;32.22;;;18.77;;
52724;SDS011;38621;52.830;6.914;2023-09-12T07:39:01;26.50;;;17.58;;
52724;SDS011;38621;52.830;6.914;2023-09-12T07:41:28;30.73;;;19.08;;
52724;SDS011;38621;52.830;6.914;2023-09-12T07:43:54;29.27;;;18.65;;
52724;SDS011;38621;52.830;6.914;2023-09-12T07:46:20;27.27;;;17.83;;
52724;SDS011;38621;52.830;6.914;2023-09-12T07:48:45;29.23;;;18.30;;
52724;SDS011;38621;52.830;6.914;2023-09-12T07:51:12;30.33;;;19.08;;
52724;SDS011;38621;52.830;6.914;2023-09-12T07:53:42;30.83;;;18.58;;
52724;SDS011;38621;52.830;6.914;2023-09-12T07:56:09;30.33;;;18.80;;
52724;SDS011;38621;52.830;6.914;2023-09-12T07:58:35;30.75;;;18.67;;
52724;SDS011;38621;52.830;6.914;2023-09-12T08:01:04;29.10;;;17.75;;
52724;SDS011;38621;52.830;6.914;2023-09-12T08:03:32;31.63;;;18.55;;
52724;SDS011;38621;52.830;6.914;2023-09-12T08:05:58;31.90;;;19.23;;
52724;SDS011;38621;52.830;6.914;2023-09-12T08:08:24;30.25;;;17.88;;
52724;SDS011;38621;52.830;6.914;2023-09-12T08:10:49;30.95;;;18.35;;
52724;SDS011;38621;52.830;6.914;2023-09-12T08:13:15;30.60;;;18.90;;
52724;SDS011;38621;52.830;6.914;2023-09-12T08:15:41;29.85;;;18.45;;
52724;SDS011;38621;52.830;6.914;2023-09-12T08:18:06;31.65;;;18.27;;
52724;SDS011;38621;52.830;6.914;2023-09-12T08:20:32;28.33;;;18.70;;
52724;SDS011;38621;52.830;6.914;2023-09-12T08:22:58;28.67;;;17.92;;
52724;SDS011;38621;52.830;6.914;2023-09-12T08:25:24;29.98;;;18.48;;
52724;SDS011;38621;52.830;6.914;2023-09-12T08:27:50;27.40;;;16.85;;
52724;SDS011;38621;52.830;6.914;2023-09-12T08:30:16;29.58;;;18.38;;
52724;SDS011;38621;52.830;6.914;2023-09-12T08:32:42;31.65;;;18.80;;
52724;SDS011;38621;52.830;6.914;2023-09-12T08:35:11;30.80;;;17.83;;
52724;SDS011;38621;52.830;6.914;2023-09-12T08:37:38;30.05;;;18.73;;
52724;SDS011;38621;52.830;6.914;2023-09-12T08:40:07;29.92;;;16.90;;
52724;SDS011;38621;52.830;6.914;2023-09-12T08:42:39;26.08;;;15.45;;
52724;SDS011;38621;52.830;6.914;2023-09-12T08:45:11;25.60;;;15.40;;
52724;SDS011;38621;52.830;6.914;2023-09-12T08:47:38;24.05;;;14.73;;
52724;SDS011;38621;52.830;6.914;2023-09-12T08:50:06;24.38;;;15.45;;
52724;SDS011;38621;52.830;6.914;2023-09-12T08:52:36;26.30;;;16.33;;
52724;SDS011;38621;52.830;6.914;2023-09-12T08:55:02;24.30;;;15.75;;
52724;SDS011;38621;52.830;6.914;2023-09-12T08:57:28;24.20;;;15.30;;
52724;SDS011;38621;52.830;6.914;2023-09-12T08:59:57;26.77;;;16.42;;
52724;SDS011;38621;52.830;6.914;2023-09-12T09:02:29;22.42;;;14.70;;
52724;SDS011;38621;52.830;6.914;2023-09-12T09:04:55;22.77;;;15.05;;
52724;SDS011;38621;52.830;6.914;2023-09-12T09:07:23;22.92;;;16.08;;
52724;SDS011;38621;52.830;6.914;2023-09-12T09:09:49;25.48;;;15.77;;
52724;SDS011;38621;52.830;6.914;2023-09-12T09:12:16;26.45;;;15.60;;
52724;SDS011;38621;52.830;6.914;2023-09-12T09:14:42;24.90;;;15.15;;
52724;SDS011;38621;52.830;6.914;2023-09-12T09:17:08;22.85;;;14.40;;
52724;SDS011;38621;52.830;6.914;2023-09-12T09:19:43;22.75;;;15.10;;
52724;SDS011;38621;52.830;6.914;2023-09-12T09:22:10;22.88;;;14.70;;
52724;SDS011;38621;52.830;6.914;2023-09-12T09:24:35;25.98;;;15.68;;
52724;SDS011;38621;52.830;6.914;2023-09-12T09:27:01;23.17;;;14.73;;
52724;SDS011;38621;52.830;6.914;2023-09-12T09:29:27;24.42;;;15.13;;
52724;SDS011;38621;52.830;6.914;2023-09-12T09:31:57;25.33;;;15.27;;
52724;SDS011;38621;52.830;6.914;2023-09-12T09:34:24;23.15;;;14.38;;
52724;SDS011;38621;52.830;6.914;2023-09-12T09:36:54;25.77;;;15.25;;
52724;SDS011;38621;52.830;6.914;2023-09-12T09:39:25;25.05;;;15.73;;
52724;SDS011;38621;52.830;6.914;2023-09-12T09:41:53;25.33;;;15.60;;
52724;SDS011;38621;52.830;6.914;2023-09-12T09:44:20;22.58;;;14.82;;
52724;SDS011;38621;52.830;6.914;2023-09-12T09:46:50;21.95;;;14.45;;
52724;SDS011;38621;52.830;6.914;2023-09-12T09:49:19;19.42;;;13.55;;
52724;SDS011;38621;52.830;6.914;2023-09-12T09:51:46;21.05;;;13.98;;
52724;SDS011;38621;52.830;6.914;2023-09-12T09:54:12;24.10;;;14.27;;
52724;SDS011;38621;52.830;6.914;2023-09-12T09:56:49;22.23;;;14.70;;
52724;SDS011;38621;52.830;6.914;2023-09-12T09:59:18;22.27;;;14.23;;
52724;SDS011;38621;52.830;6.914;2023-09-12T10:01:46;20.88;;;13.75;;
52724;SDS011;38621;52.830;6.914;2023-09-12T10:04:14;20.17;;;13.35;;
52724;SDS011;38621;52.830;6.914;2023-09-12T10:06:42;20.42;;;13.52;;
52724;SDS011;38621;52.830;6.914;2023-09-12T10:09:10;21.73;;;14.02;;
52724;SDS011;38621;52.830;6.914;2023-09-12T10:11:37;20.48;;;13.60;;
52724;SDS011;38621;52.830;6.914;2023-09-12T10:14:04;19.80;;;13.32;;
52724;SDS011;38621;52.830;6.914;2023-09-12T10:16:47;18.95;;;12.45;;
52724;SDS011;38621;52.830;6.914;2023-09-12T10:24:37;16.08;;;11.55;;
52724;SDS011;38621;52.830;6.914;2023-09-12T10:27:05;16.92;;;11.88;;
52724;SDS011;38621;52.830;6.914;2023-09-12T10:29:31;17.30;;;11.63;;
52724;SDS011;38621;52.830;6.914;2023-09-12T10:31:57;16.40;;;10.93;;
52724;SDS011;38621;52.830;6.914;2023-09-12T10:34:24;16.15;;;11.38;;
52724;SDS011;38621;52.830;6.914;2023-09-12T10:36:51;17.70;;;11.55;;
52724;SDS011;38621;52.830;6.914;2023-09-12T10:39:20;15.50;;;11.15;;
52724;SDS011;38621;52.830;6.914;2023-09-12T10:41:47;13.73;;;10.43;;
52724;SDS011;38621;52.830;6.914;2023-09-12T10:44:17;13.80;;;10.35;;
52724;SDS011;38621;52.830;6.914;2023-09-12T10:46:43;15.55;;;10.43;;
52724;SDS011;38621;52.830;6.914;2023-09-12T10:49:11;14.48;;;10.25;;
52724;SDS011;38621;52.830;6.914;2023-09-12T10:51:38;17.58;;;11.60;;
52724;SDS011;38621;52.830;6.914;2023-09-12T10:54:12;17.58;;;11.48;;
52724;SDS011;38621;52.830;6.914;2023-09-12T10:56:40;14.80;;;10.63;;
52724;SDS011;38621;52.830;6.914;2023-09-12T11:01:38;16.90;;;11.82;;
52724;SDS011;38621;52.830;6.914;2023-09-12T11:06:49;15.65;;;10.77;;
52724;SDS011;38621;52.830;6.914;2023-09-12T11:09:25;16.73;;;11.48;;
52724;SDS011;38621;52.830;6.914;2023-09-12T11:11:58;17.77;;;11.90;;
52724;SDS011;38621;52.830;6.914;2023-09-12T11:14:28;16.02;;;11.32;;
52724;SDS011;38621;52.830;6.914;2023-09-12T11:20:06;16.30;;;12.07;;
52724;SDS011;38621;52.830;6.914;2023-09-12T11:22:30;17.77;;;12.55;;
52724;SDS011;38621;52.830;6.914;2023-09-12T11:24:57;16.88;;;12.43;;
52724;SDS011;38621;52.830;6.914;2023-09-12T11:27:31;15.73;;;11.23;;
52724;SDS011;38621;52.830;6.914;2023-09-12T11:30:08;14.73;;;10.48;;
52724;SDS011;38621;52.830;6.914;2023-09-12T11:32:35;15.20;;;10.27;;
52724;SDS011;38621;52.830;6.914;2023-09-12T11:35:05;15.95;;;10.50;;
52724;SDS011;38621;52.830;6.914;2023-09-12T11:37:32;17.02;;;11.27;;
52724;SDS011;38621;52.830;6.914;2023-09-12T11:39:58;16.40;;;11.02;;
52724;SDS011;38621;52.830;6.914;2023-09-12T11:42:24;15.40;;;10.43;;
52724;SDS011;38621;52.830;6.914;2023-09-12T11:44:53;13.45;;;10.93;;
52724;SDS011;38621;52.830;6.914;2023-09-12T11:47:18;13.88;;;10.70;;
52724;SDS011;38621;52.830;6.914;2023-09-12T11:49:45;12.77;;;10.70;;
52724;SDS011;38621;52.830;6.914;2023-09-12T11:52:14;13.98;;;10.48;;
52724;SDS011;38621;52.830;6.914;2023-09-12T11:54:45;16.33;;;11.93;;
52724;SDS011;38621;52.830;6.914;2023-09-12T11:57:12;14.63;;;11.05;;
52724;SDS011;38621;52.830;6.914;2023-09-12T11:59:40;16.77;;;11.70;;
52724;SDS011;38621;52.830;6.914;2023-09-12T12:02:08;15.70;;;11.82;;
52724;SDS011;38621;52.830;6.914;2023-09-12T12:04:35;14.98;;;11.55;;
52724;SDS011;38621;52.830;6.914;2023-09-12T12:07:03;16.95;;;11.32;;
52724;SDS011;38621;52.830;6.914;2023-09-12T12:09:29;18.13;;;11.65;;
52724;SDS011;38621;52.830;6.914;2023-09-12T12:11:55;15.55;;;12.20;;
52724;SDS011;38621;52.830;6.914;2023-09-12T12:14:25;16.88;;;11.82;;
52724;SDS011;38621;52.830;6.914;2023-09-12T12:16:51;15.18;;;11.00;;
52724;SDS011;38621;52.830;6.914;2023-09-12T12:19:18;16.38;;;12.30;;
52724;SDS011;38621;52.830;6.914;2023-09-12T12:21:44;14.88;;;10.20;;
52724;SDS011;38621;52.830;6.914;2023-09-12T12:24:10;14.75;;;10.38;;
52724;SDS011;38621;52.830;6.914;2023-09-12T12:26:40;13.52;;;9.60;;
52724;SDS011;38621;52.830;6.914;2023-09-12T12:29:08;13.45;;;9.75;;
52724;SDS011;38621;52.830;6.914;2023-09-12T12:31:35;15.85;;;10.32;;
52724;SDS011;38621;52.830;6.914;2023-09-12T12:34:01;13.25;;;9.80;;
52724;SDS011;38621;52.830;6.914;2023-09-12T12:36:28;13.52;;;10.00;;
52724;SDS011;38621;52.830;6.914;2023-09-12T12:38:54;11.13;;;9.02;;
52724;SDS011;38621;52.830;6.914;2023-09-12T12:41:24;13.20;;;9.82;;
52724;SDS011;38621;52.830;6.914;2023-09-12T12:43:56;14.55;;;9.65;;
52724;SDS011;38621;52.830;6.914;2023-09-12T12:46:24;12.55;;;9.07;;
52724;SDS011;38621;52.830;6.914;2023-09-12T12:48:50;13.55;;;9.82;;
52724;SDS011;38621;52.830;6.914;2023-09-12T12:51:17;11.95;;;9.18;;
52724;SDS011;38621;52.830;6.914;2023-09-12T12:53:47;11.82;;;7.85;;
52724;SDS011;38621;52.830;6.914;2023-09-12T12:56:16;10.38;;;7.95;;
52724;SDS011;38621;52.830;6.914;2023-09-12T12:58:47;12.60;;;9.48;;
52724;SDS011;38621;52.830;6.914;2023-09-12T13:01:17;13.05;;;9.10;;
52724;SDS011;38621;52.830;6.914;2023-09-12T13:03:44;11.65;;;8.30;;
52724;SDS011;38621;52.830;6.914;2023-09-12T13:06:10;11.38;;;8.15;;
52724;SDS011;38621;52.830;6.914;2023-09-12T13:08:44;10.85;;;8.30;;
52724;SDS011;38621;52.830;6.914;2023-09-12T13:11:11;11.88;;;8.30;;
52724;SDS011;38621;52.830;6.914;2023-09-12T13:13:38;11.48;;;8.25;;
52724;SDS011;38621;52.830;6.914;2023-09-12T13:16:05;12.52;;;8.93;;
52724;SDS011;38621;52.830;6.914;2023-09-12T13:18:34;10.48;;;8.57;;
52724;SDS011;38621;52.830;6.914;2023-09-12T13:21:04;11.93;;;8.60;;
52724;SDS011;38621;52.830;6.914;2023-09-12T13:23:31;11.57;;;8.82;;
52724;SDS011;38621;52.830;6.914;2023-09-12T13:25:58;10.00;;;8.57;;
52724;SDS011;38621;52.830;6.914;2023-09-12T13:28:24;10.23;;;7.55;;
52724;SDS011;38621;52.830;6.914;2023-09-12T13:30:53;11.13;;;8.23;;
52724;SDS011;38621;52.830;6.914;2023-09-12T13:33:18;9.73;;;7.88;;
52724;SDS011;38621;52.830;6.914;2023-09-12T13:35:44;10.10;;;7.80;;
52724;SDS011;38621;52.830;6.914;2023-09-12T13:38:11;10.10;;;7.45;;
52724;SDS011;38621;52.830;6.914;2023-09-12T13:40:40;9.38;;;7.22;;
52724;SDS011;38621;52.830;6.914;2023-09-12T13:43:07;8.55;;;6.47;;
52724;SDS011;38621;52.830;6.914;2023-09-12T13:45:34;9.80;;;7.13;;
52724;SDS011;38621;52.830;6.914;2023-09-12T13:48:00;8.82;;;7.15;;
52724;SDS011;38621;52.830;6.914;2023-09-12T13:50:26;12.40;;;6.72;;
52724;SDS011;38621;52.830;6.914;2023-09-12T13:52:55;11.80;;;7.43;;
52724;SDS011;38621;52.830;6.914;2023-09-12T13:55:25;10.35;;;7.95;;
52724;SDS011;38621;52.830;6.914;2023-09-12T13:57:51;11.18;;;8.15;;
52724;SDS011;38621;52.830;6.914;2023-09-12T14:00:17;9.07;;;7.05;;
52724;SDS011;38621;52.830;6.914;2023-09-12T14:02:42;10.68;;;8.27;;
52724;SDS011;38621;52.830;6.914;2023-09-12T14:05:09;11.15;;;8.23;;
52724;SDS011;38621;52.830;6.914;2023-09-12T14:07:36;10.75;;;8.13;;
52724;SDS011;38621;52.830;6.914;2023-09-12T14:10:04;9.68;;;7.65;;
52724;SDS011;38621;52.830;6.914;2023-09-12T14:12:33;10.15;;;7.20;;
52724;SDS011;38621;52.830;6.914;2023-09-12T14:14:59;10.15;;;7.18;;
52724;SDS011;38621;52.830;6.914;2023-09-12T14:17:25;9.80;;;7.03;;
52724;SDS011;38621;52.830;6.914;2023-09-12T14:19:52;9.38;;;6.28;;
52724;SDS011;38621;52.830;6.914;2023-09-12T14:22:17;8.75;;;7.20;;
52724;SDS011;38621;52.830;6.914;2023-09-12T14:24:43;9.55;;;7.22;;
52724;SDS011;38621;52.830;6.914;2023-09-12T14:27:09;8.82;;;7.10;;
52724;SDS011;38621;52.830;6.914;2023-09-12T14:29:34;9.38;;;6.97;;
52724;SDS011;38621;52.830;6.914;2023-09-12T14:32:00;10.23;;;6.82;;
52724;SDS011;38621;52.830;6.914;2023-09-12T14:34:26;8.85;;;6.65;;
52724;SDS011;38621;52.830;6.914;2023-09-12T14:36:56;9.93;;;7.72;;
52724;SDS011;38621;52.830;6.914;2023-09-12T14:39:22;10.35;;;6.80;;
52724;SDS011;38621;52.830;6.914;2023-09-12T14:41:48;9.13;;;6.75;;